• Join FlightAware (Why Join?)
  • Login
  • US Flag 
11:05PM EDT


 

Airport Tracker/Info


-or-


 

Live Flight TrackerFlight Track Log ✈ RPA4907 ✈ 06-Jul-2014 ✈ KMTJ - KDEN

Flight Track Log - Related Links

Times and Time Zones

All times are in EDT time to prevent confusion due to time zone crossing. See the RPA4907 flight status page for this flight to view local times or setup timezone preferences in your user account.

Time Position Orientation Groundspeed Altitude Reporting Facility
EDT Latitude Longitude Course Direction KTS MPH feet Rate Location/Type
06:14PM 38.5064 -107.7336 81° East 224 258 11,900  Level Denver Center
06:15PM 38.5156 -107.6564 81° East 231 266 13,500 1,500 Climbing Denver Center
06:16PM 38.5372 -107.5828 69° East 226 260 15,000 1,260 Climbing Denver Center
06:17PM 38.5586 -107.5142 68° East 224 258 16,200 1,320 Climbing Denver Center
06:18PM 38.6053 -107.4383 52° Northeast 222 255 17,800 1,080 Climbing Denver Center
06:19PM 38.6422 -107.3703 55° Northeast 227 261 18,500 900 Climbing Denver Center
06:20PM 38.6825 -107.2986 54° Northeast 241 277 19,700 1,080 Climbing Denver Center
06:21PM 38.7219 -107.2300 54° Northeast 241 277 20,800 1,020 Climbing Denver Center
06:22PM 38.7622 -107.1558 55° Northeast 243 280 21,900 1,080 Climbing Denver Center
06:23PM 38.7983 -107.0842 57° Northeast 242 278 23,100 720 Climbing Denver Center
06:24PM 38.8158 -107.0017 75° East 240 276 23,500 600 Climbing Denver Center
06:26PM 38.8558 -106.8128 69° East 249 287 25,000 480 Climbing Denver Center
06:27PM 38.8764 -106.7175 74° East 267 307 25,000  Level Denver Center
06:28PM 38.9011 -106.6117 73° East 289 333 25,000  Level Denver Center
06:29PM 38.9247 -106.5025 74° East 306 352 25,000  Level Denver Center
06:30PM 38.9578 -106.3908 69° East 320 368 25,000  Level Denver Center
06:31PM 39.0064 -106.2583 65° Northeast 337 388 25,000  Level Denver Center
06:32PM 39.0469 -106.1472 65° Northeast 337 388 25,000  Level Denver Center
06:33PM 39.0869 -106.0389 65° Northeast 337 388 25,000 -180 Level Denver Center
06:34PM 39.1267 -105.9267 65° Northeast 342 394 24,700 -480 Descending Denver Center
06:35PM 39.1681 -105.8094 65° Northeast 355 409 24,100 -900 Descending Denver Center
06:37PM 39.2500 -105.6167 61° Northeast 327 376 22,300 -1,680 Descending Denver TRACON
06:38PM 39.2833 -105.5167 67° East 321 369 19,900 -2,580 Descending Denver TRACON
06:39PM 39.3014 -105.4669 65° Northeast 322 371 18,600 -2,340 Descending Denver Center
06:40PM 39.3467 -105.3572 62° Northeast 323 372 16,200 -2,160 Descending Denver Center
06:41PM 39.3847 -105.2528 65° Northeast 321 369 14,100 -1,560 Descending Denver Center
06:42PM 39.4247 -105.1464 64° Northeast 310 357 13,000 -540 Descending Denver Center
06:43PM 39.4581 -105.0575 64° Northeast 280 322 13,000 -240 Level Denver Center
06:44PM 39.4903 -104.9636 66° East 271 312 12,600 -720 Descending Denver Center
06:45PM 39.5419 -104.9017 43° Northeast 257 296 11,600 -1,020 Descending Denver Center
06:46PM 39.6022 -104.8500 33° Northeast 258 297 10,500 -1,260 Descending Denver Center
06:47PM 39.6622 -104.7958 35° Northeast 243 280 9,100 -1,500 Descending Denver Center
06:48PM 39.7158 -104.7475 35° Northeast 239 275 7,400 -840 Descending Denver Center
06:50PM 39.8064 -104.6883 27° Northeast 141 162 6,500 -540 Descending Denver Center
06:51PM 39.8428 -104.6881 360° North 126 145 5,800 -600 Descending Denver Center
06:52PM 39.8753 -104.6872 North 121 139 5,300 -540 Descending Denver Center
06:54PM 39.8617 -104.6732 339° North  Level Estimated
07:01PM 39.8617 -104.6732 339° North  Level Estimated
07:02PM 39.8617 -104.6732 339° North  Level Estimated
07:03PM 39.8617 -104.6732 339° North  Level Estimated